createdAt,value
2023-03-16T00:02:26.402Z,1.92
2023-03-16T00:04:56.312Z,2.20
2023-03-16T00:07:26.087Z,2.42
2023-03-16T00:09:55.552Z,3.80
2023-03-16T00:12:26.275Z,2.70
2023-03-16T00:14:55.489Z,2.50
2023-03-16T00:17:26.671Z,2.50
2023-03-16T00:19:57.279Z,3.00
2023-03-16T00:22:27.508Z,2.35
2023-03-16T00:24:57.392Z,2.95
2023-03-16T00:27:32.825Z,3.85
2023-03-16T00:30:03.415Z,3.63
2023-03-16T00:32:36.171Z,2.45
2023-03-16T00:35:09.217Z,2.72
2023-03-16T00:37:39.780Z,2.83
2023-03-16T00:40:12.324Z,2.83
2023-03-16T00:42:41.827Z,2.38
2023-03-16T00:45:12.374Z,3.17
2023-03-16T00:47:43.900Z,2.88
2023-03-16T00:50:13.678Z,2.90
2023-03-16T00:52:43.625Z,2.42
2023-03-16T00:55:13.968Z,2.78
2023-03-16T00:57:45.010Z,2.90
2023-03-16T01:00:17.209Z,3.15
2023-03-16T01:02:49.767Z,3.17
2023-03-16T01:05:21.472Z,3.15
2023-03-16T01:07:52.371Z,4.90
2023-03-16T01:10:21.950Z,2.90
2023-03-16T01:12:56.363Z,3.08
2023-03-16T01:15:26.180Z,3.17
2023-03-16T01:17:57.151Z,3.25
2023-03-16T01:20:26.941Z,4.18
2023-03-16T01:22:56.576Z,3.40
2023-03-16T01:25:26.250Z,3.22
2023-03-16T01:27:58.209Z,4.50
2023-03-16T01:30:28.432Z,3.70
2023-03-16T01:32:59.787Z,3.53
2023-03-16T01:35:29.419Z,3.17
2023-03-16T01:37:59.394Z,3.65
2023-03-16T01:40:30.109Z,3.22
2023-03-16T01:43:06.868Z,3.60
2023-03-16T01:46:18.487Z,3.30
2023-03-16T01:49:08.370Z,3.63
2023-03-16T01:51:44.211Z,2.90
2023-03-16T01:54:16.858Z,3.40
2023-03-16T01:56:47.603Z,2.65
2023-03-16T01:59:19.832Z,2.67
2023-03-16T02:01:51.774Z,3.72
2023-03-16T02:04:28.877Z,2.75
2023-03-16T02:07:04.667Z,2.78
2023-03-16T02:12:03.870Z,2.50
2023-03-16T02:17:05.060Z,2.90
2023-03-16T02:19:39.310Z,3.00
2023-03-16T02:22:11.522Z,3.28
2023-03-16T02:24:41.109Z,3.60
2023-03-16T02:27:11.813Z,3.22
2023-03-16T02:30:05.830Z,3.33
2023-03-16T02:32:42.788Z,3.00
2023-03-16T02:35:13.924Z,3.83
2023-03-16T02:37:44.573Z,3.25
2023-03-16T02:40:20.978Z,3.40
2023-03-16T02:42:54.693Z,2.97
2023-03-16T02:45:27.805Z,3.78
2023-03-16T02:47:59.387Z,3.88
2023-03-16T02:50:29.338Z,4.07
2023-03-16T02:52:59.254Z,4.20
2023-03-16T02:55:30.048Z,4.72
2023-03-16T02:58:00.867Z,5.13
2023-03-16T03:00:32.270Z,4.43
2023-03-16T03:03:02.050Z,4.15
2023-03-16T03:05:31.884Z,4.35
2023-03-16T03:08:01.836Z,4.28
2023-03-16T03:10:32.444Z,4.70
2023-03-16T03:13:01.804Z,4.25
2023-03-16T03:15:33.968Z,5.10
2023-03-16T03:18:09.627Z,4.53
2023-03-16T03:20:39.635Z,5.20
2023-03-16T03:23:10.518Z,4.72
2023-03-16T03:25:40.438Z,4.67
2023-03-16T03:28:10.461Z,3.80
2023-03-16T03:30:43.317Z,3.78
2023-03-16T03:33:15.163Z,4.03
2023-03-16T03:35:44.770Z,4.22
2023-03-16T03:38:15.605Z,4.13
2023-03-16T03:40:50.557Z,3.70
2023-03-16T03:43:19.913Z,3.90
2023-03-16T03:45:59.253Z,4.22
2023-03-16T03:48:29.637Z,3.33
2023-03-16T03:51:00.571Z,3.22
2023-03-16T03:53:48.300Z,4.07
2023-03-16T03:56:25.853Z,2.42
2023-03-16T03:58:55.717Z,3.22
2023-03-16T04:01:42.113Z,3.80
2023-03-16T04:06:42.122Z,2.92
2023-03-16T04:09:11.609Z,3.33
2023-03-16T04:11:42.001Z,3.10
2023-03-16T04:14:11.733Z,2.67
2023-03-16T04:16:44.597Z,3.60
2023-03-16T04:19:15.875Z,3.65
2023-03-16T04:21:45.858Z,2.42
2023-03-16T04:24:16.089Z,2.60
2023-03-16T04:26:46.391Z,2.80
2023-03-16T04:29:18.155Z,2.17
2023-03-16T04:31:49.328Z,3.20
2023-03-16T04:34:18.940Z,2.65
2023-03-16T04:36:49.414Z,2.50
2023-03-16T04:39:19.272Z,2.30
2023-03-16T04:41:49.574Z,2.22
2023-03-16T04:44:25.908Z,2.85
2023-03-16T04:46:56.893Z,2.10
2023-03-16T04:49:28.897Z,1.98
2023-03-16T04:51:58.125Z,3.60
2023-03-16T04:54:27.884Z,2.00
2023-03-16T04:56:57.410Z,1.55
2023-03-16T04:59:41.654Z,2.10
2023-03-16T05:02:21.687Z,2.08
2023-03-16T05:04:51.525Z,1.88
2023-03-16T05:07:23.326Z,3.22
2023-03-16T05:09:56.101Z,2.50
2023-03-16T05:12:25.173Z,2.50
2023-03-16T05:14:58.618Z,2.30
2023-03-16T05:17:38.636Z,1.98
2023-03-16T05:20:14.002Z,2.30
2023-03-16T05:22:48.561Z,3.55
2023-03-16T05:25:23.270Z,2.25
2023-03-16T05:30:53.912Z,2.33
2023-03-16T05:33:29.531Z,1.80
2023-03-16T05:36:04.983Z,2.17
2023-03-16T05:38:36.965Z,2.42
2023-03-16T05:41:07.528Z,2.13
2023-03-16T05:43:56.917Z,2.92
2023-03-16T05:46:29.873Z,2.38
2023-03-16T05:49:01.067Z,2.40
2023-03-16T05:54:03.263Z,2.20
2023-03-16T05:56:44.581Z,2.80
2023-03-16T05:59:14.316Z,1.83
2023-03-16T06:01:44.296Z,2.55
2023-03-16T06:04:15.636Z,2.25
2023-03-16T06:06:45.064Z,2.53
2023-03-16T06:09:22.044Z,3.47
2023-03-16T06:11:51.537Z,1.67
2023-03-16T06:14:23.315Z,2.40
2023-03-16T06:16:54.232Z,2.22
2023-03-16T06:19:25.729Z,1.95
2023-03-16T06:22:00.720Z,1.88
2023-03-16T06:24:31.152Z,1.92
2023-03-16T06:27:01.071Z,1.92
2023-03-16T06:29:36.345Z,2.45
2023-03-16T06:32:06.494Z,1.55
2023-03-16T06:34:38.320Z,2.05
2023-03-16T06:37:09.032Z,1.73
2023-03-16T06:39:38.823Z,1.83
2023-03-16T06:42:08.493Z,2.30
2023-03-16T06:44:38.453Z,1.80
2023-03-16T06:47:15.062Z,2.05
2023-03-16T06:49:46.995Z,1.55
2023-03-16T06:52:21.361Z,1.27
2023-03-16T06:54:51.325Z,1.73
2023-03-16T06:57:22.578Z,1.27
2023-03-16T06:59:52.676Z,1.70
2023-03-16T07:02:23.643Z,1.88
2023-03-16T07:04:54.706Z,1.17
2023-03-16T07:07:24.798Z,1.30
2023-03-16T07:09:54.290Z,1.30
2023-03-16T07:12:23.583Z,1.77
2023-03-16T07:14:54.218Z,1.20
2023-03-16T07:17:27.039Z,1.27
2023-03-16T07:20:00.653Z,1.30
2023-03-16T07:22:29.921Z,1.98
2023-03-16T07:24:59.011Z,1.00
2023-03-16T07:27:30.041Z,1.02
2023-03-16T07:30:01.022Z,1.15
2023-03-16T07:32:30.131Z,1.30
2023-03-16T07:35:01.074Z,0.95
2023-03-16T07:37:34.507Z,1.23
2023-03-16T07:40:09.301Z,1.45
2023-03-16T07:42:39.070Z,1.77
2023-03-16T07:45:15.672Z,1.95
2023-03-16T07:47:46.789Z,1.20
2023-03-16T07:50:30.410Z,1.80
2023-03-16T07:53:01.512Z,0.80
2023-03-16T07:55:31.789Z,1.20
2023-03-16T07:58:02.298Z,1.20
2023-03-16T08:00:35.687Z,1.30
2023-03-16T08:03:05.254Z,0.82
2023-03-16T08:05:36.437Z,1.35
2023-03-16T08:08:11.948Z,1.50
2023-03-16T08:10:44.202Z,0.82
2023-03-16T08:13:19.635Z,0.90
2023-03-16T08:15:49.172Z,0.80
2023-03-16T08:18:28.245Z,1.10
2023-03-16T08:20:59.040Z,1.05
2023-03-16T08:23:29.436Z,1.65
2023-03-16T08:25:59.677Z,1.30
2023-03-16T08:28:30.497Z,0.95
2023-03-16T08:31:00.799Z,1.15
2023-03-16T08:33:39.901Z,1.20
2023-03-16T08:36:13.444Z,1.00
2023-03-16T08:38:53.556Z,1.10
2023-03-16T08:41:30.886Z,0.80
2023-03-16T08:44:03.430Z,1.08
2023-03-16T08:46:34.573Z,0.90
2023-03-16T08:49:04.149Z,2.20
2023-03-16T08:51:35.313Z,0.80
2023-03-16T08:54:04.609Z,0.60
2023-03-16T08:56:34.843Z,0.90
2023-03-16T08:59:03.927Z,0.80
2023-03-16T09:01:34.427Z,0.65
2023-03-16T09:04:03.744Z,1.23
2023-03-16T09:06:33.396Z,0.93
2023-03-16T09:09:04.817Z,0.90
2023-03-16T09:11:52.520Z,1.15
2023-03-16T09:14:21.829Z,1.27
2023-03-16T09:16:51.250Z,1.20
2023-03-16T09:19:21.970Z,1.50
2023-03-16T09:21:51.395Z,1.20
2023-03-16T09:24:26.323Z,1.80
2023-03-16T09:26:56.029Z,2.55
2023-03-16T09:29:25.138Z,1.80
2023-03-16T09:31:54.126Z,3.90
2023-03-16T09:36:54.013Z,1.60
2023-03-16T09:39:23.410Z,1.67
2023-03-16T09:41:57.366Z,1.10
2023-03-16T09:44:30.683Z,1.30
2023-03-16T09:47:13.586Z,1.63
2023-03-16T09:49:47.742Z,1.40
2023-03-16T09:52:24.562Z,1.30
2023-03-16T09:54:57.654Z,2.65
2023-03-16T09:57:30.528Z,1.63
2023-03-16T10:00:03.026Z,1.55
2023-03-16T10:02:50.073Z,1.45
2023-03-16T10:05:22.971Z,1.50
2023-03-16T10:07:56.310Z,1.67
2023-03-16T10:10:31.159Z,2.42
2023-03-16T10:13:03.094Z,1.17
2023-03-16T10:15:35.141Z,1.38
2023-03-16T10:18:07.794Z,2.22
2023-03-16T10:20:42.224Z,1.33
2023-03-16T10:25:47.233Z,1.15
2023-03-16T10:28:19.480Z,1.33
2023-03-16T10:30:50.254Z,1.30
2023-03-16T10:33:23.420Z,1.48
2023-03-16T10:35:54.497Z,1.23
2023-03-16T10:38:33.152Z,1.40
2023-03-16T10:41:02.847Z,0.77
2023-03-16T10:43:34.102Z,1.00
2023-03-16T10:46:21.882Z,1.10
2023-03-16T10:48:59.563Z,1.85
2023-03-16T10:51:35.428Z,1.45
2023-03-16T10:54:19.840Z,0.80
2023-03-16T10:56:50.580Z,0.80
2023-03-16T10:59:33.058Z,1.10
2023-03-16T11:02:03.648Z,1.00
2023-03-16T11:04:34.129Z,0.80
2023-03-16T11:07:19.140Z,1.02
2023-03-16T11:09:50.703Z,1.00
2023-03-16T11:12:32.495Z,1.40
2023-03-16T11:15:09.388Z,1.20
2023-03-16T11:17:45.667Z,1.10
2023-03-16T11:20:18.310Z,0.77
2023-03-16T11:22:52.784Z,1.13
2023-03-16T11:25:36.904Z,0.90
2023-03-16T11:28:13.301Z,0.98
2023-03-16T11:30:50.217Z,0.80
2023-03-16T11:33:31.122Z,1.02
2023-03-16T11:36:16.425Z,1.45
2023-03-16T11:38:51.340Z,1.40
2023-03-16T11:41:30.249Z,1.27
2023-03-16T11:44:04.868Z,1.48
2023-03-16T11:46:38.779Z,1.45
2023-03-16T11:49:15.942Z,1.65
2023-03-16T11:51:51.803Z,1.00
2023-03-16T11:54:36.887Z,1.90
2023-03-16T11:59:55.382Z,1.88
2023-03-16T12:02:53.862Z,1.48
2023-03-16T12:05:36.953Z,1.63
2023-03-16T12:08:16.905Z,2.08
2023-03-16T12:10:54.197Z,1.55
2023-03-16T12:13:47.185Z,1.50
2023-03-16T12:16:21.318Z,1.52
2023-03-16T12:18:56.133Z,2.40
2023-03-16T12:21:31.624Z,1.30
2023-03-16T12:24:04.214Z,1.15
2023-03-16T12:26:37.522Z,1.42
2023-03-16T12:29:10.695Z,1.40
2023-03-16T12:31:46.029Z,1.17
2023-03-16T12:34:21.284Z,1.42
2023-03-16T12:36:57.991Z,1.60
2023-03-16T12:39:34.805Z,1.25
2023-03-16T12:42:11.273Z,1.80
2023-03-16T12:44:46.064Z,1.20
2023-03-16T12:47:22.303Z,1.60
2023-03-16T12:49:53.132Z,1.27
2023-03-16T12:52:22.532Z,1.33
2023-03-16T12:54:53.092Z,1.02
2023-03-16T12:57:27.015Z,2.45
2023-03-16T12:59:59.978Z,1.38
2023-03-16T13:02:32.018Z,1.20
2023-03-16T13:07:32.724Z,1.10
2023-03-16T13:10:04.477Z,1.58
2023-03-16T13:12:37.139Z,1.55
2023-03-16T13:15:29.610Z,1.40
2023-03-16T13:18:07.778Z,1.67
2023-03-16T13:20:39.189Z,1.50
2023-03-16T13:23:11.790Z,2.30
2023-03-16T13:25:43.956Z,2.92
2023-03-16T13:30:46.647Z,1.42
2023-03-16T13:33:20.592Z,1.52
2023-03-16T13:35:51.132Z,1.77
2023-03-16T13:38:27.265Z,1.67
2023-03-16T13:40:57.714Z,1.65
2023-03-16T13:43:29.959Z,3.03
2023-03-16T13:45:59.198Z,1.00
2023-03-16T13:48:28.238Z,1.55
2023-03-16T13:50:58.883Z,1.67
2023-03-16T13:53:31.686Z,1.67
2023-03-16T13:56:04.339Z,1.55
2023-03-16T13:58:35.713Z,3.35
2023-03-16T14:01:06.255Z,1.90
2023-03-16T14:03:36.376Z,2.60
2023-03-16T14:06:05.462Z,1.85
2023-03-16T14:08:36.123Z,1.20
2023-03-16T14:11:05.330Z,1.50
2023-03-16T14:13:38.195Z,1.63
2023-03-16T14:16:13.250Z,0.93
2023-03-16T14:18:44.199Z,1.75
2023-03-16T14:21:16.879Z,1.77
2023-03-16T14:23:48.502Z,1.35
2023-03-16T14:26:18.745Z,1.08
2023-03-16T14:28:57.357Z,1.45
2023-03-16T14:31:34.224Z,1.77
2023-03-16T14:34:08.839Z,1.85
2023-03-16T14:36:39.703Z,1.25
2023-03-16T14:39:14.232Z,1.35
2023-03-16T14:41:43.687Z,1.25
2023-03-16T14:44:19.477Z,1.50
2023-03-16T14:46:48.674Z,1.67
2023-03-16T14:49:22.887Z,1.60
2023-03-16T14:51:53.931Z,1.30
2023-03-16T14:54:26.005Z,1.05
2023-03-16T14:57:04.365Z,1.88
2023-03-16T14:59:33.388Z,1.08
2023-03-16T15:02:04.286Z,1.20
2023-03-16T15:04:34.969Z,1.88
2023-03-16T15:07:08.909Z,1.83
2023-03-16T15:09:40.378Z,1.70
2023-03-16T15:12:15.088Z,2.03
2023-03-16T15:15:01.628Z,1.42
2023-03-16T15:17:30.751Z,2.03
2023-03-16T15:20:00.187Z,1.80
2023-03-16T15:22:30.782Z,2.03
2023-03-16T15:25:05.149Z,2.65
2023-03-16T15:27:36.369Z,2.20
2023-03-16T15:30:08.583Z,3.70
2023-03-16T15:32:37.866Z,3.83
2023-03-16T15:35:07.624Z,5.68
2023-03-16T15:37:38.735Z,4.82
2023-03-16T15:40:17.312Z,3.72
2023-03-16T15:42:47.038Z,3.10
2023-03-16T15:45:18.808Z,2.60
2023-03-16T15:47:48.872Z,3.22
2023-03-16T15:50:19.579Z,1.95
2023-03-16T15:52:50.848Z,1.90
2023-03-16T15:55:22.542Z,2.05
2023-03-16T16:00:39.584Z,2.00
2023-03-16T16:03:09.038Z,1.35
2023-03-16T16:05:38.286Z,1.38
2023-03-16T16:08:09.118Z,1.65
2023-03-16T16:10:41.936Z,1.17
2023-03-16T16:13:15.145Z,1.00
2023-03-16T16:15:45.419Z,1.50
2023-03-16T16:18:30.498Z,1.20
2023-03-16T16:21:00.396Z,1.38
2023-03-16T16:23:30.173Z,1.80
2023-03-16T16:26:02.150Z,1.48
2023-03-16T16:31:00.812Z,1.60
2023-03-16T16:33:30.382Z,1.42
2023-03-16T16:36:00.510Z,1.13
2023-03-16T16:38:30.577Z,2.00
2023-03-16T16:41:02.853Z,1.40
2023-03-16T16:43:34.212Z,1.50
2023-03-16T16:46:04.844Z,1.83
2023-03-16T16:48:36.708Z,2.00
2023-03-16T16:51:08.013Z,1.85
2023-03-16T16:53:37.359Z,1.40
2023-03-16T16:56:12.738Z,1.52
2023-03-16T16:58:41.870Z,1.30
2023-03-16T17:01:15.782Z,1.05
2023-03-16T17:03:47.578Z,1.58
2023-03-16T17:06:17.885Z,1.65
2023-03-16T17:08:47.431Z,1.80
2023-03-16T17:11:21.312Z,1.88
2023-03-16T17:13:51.151Z,1.80
2023-03-16T17:16:22.688Z,1.60
2023-03-16T17:18:53.265Z,2.50
2023-03-16T17:21:25.165Z,2.00
2023-03-16T17:23:54.358Z,2.28
2023-03-16T17:26:26.267Z,1.65
2023-03-16T17:28:57.571Z,2.00
2023-03-16T17:31:27.830Z,2.28
2023-03-16T17:33:58.397Z,5.68
2023-03-16T17:36:27.592Z,3.15
2023-03-16T17:38:58.082Z,3.72
2023-03-16T17:41:31.792Z,4.35
2023-03-16T17:44:04.500Z,2.15
2023-03-16T17:46:35.150Z,1.70
2023-03-16T17:49:04.797Z,2.45
2023-03-16T17:51:34.649Z,2.53
2023-03-16T17:54:05.335Z,2.35
2023-03-16T17:56:37.170Z,2.15
2023-03-16T17:59:08.246Z,3.58
2023-03-16T18:01:39.079Z,4.10
2023-03-16T18:04:09.665Z,2.97
2023-03-16T18:06:38.923Z,4.30
2023-03-16T18:09:08.452Z,4.93
2023-03-16T18:11:42.157Z,7.75
2023-03-16T18:14:16.554Z,4.93
2023-03-16T18:16:45.893Z,9.23
2023-03-16T18:19:23.779Z,4.47
2023-03-16T18:21:53.690Z,3.03
2023-03-16T18:24:26.772Z,4.95
2023-03-16T18:26:57.297Z,7.03
2023-03-16T18:29:26.510Z,4.95
2023-03-16T18:31:56.907Z,4.75
2023-03-16T18:34:28.551Z,2.50
2023-03-16T18:36:59.759Z,2.30
2023-03-16T18:39:29.279Z,1.67
2023-03-16T18:42:03.053Z,2.10
2023-03-16T18:44:32.150Z,2.50
2023-03-16T18:47:04.458Z,2.22
2023-03-16T18:49:34.637Z,2.60
2023-03-16T18:52:03.834Z,1.70
2023-03-16T18:54:35.439Z,1.90
2023-03-16T18:57:07.693Z,2.42
2023-03-16T18:59:36.933Z,3.97
2023-03-16T19:02:06.644Z,3.20
2023-03-16T19:04:36.287Z,2.65
2023-03-16T19:07:06.258Z,2.20
2023-03-16T19:09:35.957Z,1.92
2023-03-16T19:12:07.330Z,2.20
2023-03-16T19:14:36.823Z,3.15
2023-03-16T19:17:06.047Z,2.30
2023-03-16T19:19:36.152Z,2.50
2023-03-16T19:22:09.722Z,2.50
2023-03-16T19:24:44.469Z,2.05
2023-03-16T19:27:19.008Z,1.27
2023-03-16T19:29:50.374Z,1.80
2023-03-16T19:32:21.076Z,1.42
2023-03-16T19:34:50.892Z,1.60
2023-03-16T19:37:20.796Z,2.40
2023-03-16T19:39:49.785Z,2.53
2023-03-16T19:42:22.351Z,2.63
2023-03-16T19:44:52.202Z,2.15
2023-03-16T19:47:28.785Z,2.70
2023-03-16T19:49:58.792Z,2.38
2023-03-16T19:52:28.327Z,2.92
2023-03-16T19:54:57.468Z,2.30
2023-03-16T19:57:28.244Z,3.30
2023-03-16T19:59:58.579Z,3.03
2023-03-16T20:02:29.886Z,2.72
2023-03-16T20:04:59.074Z,2.63
2023-03-16T20:07:28.178Z,2.30
2023-03-16T20:09:57.425Z,3.72
2023-03-16T20:12:28.668Z,2.60
2023-03-16T20:14:59.594Z,2.30
2023-03-16T20:17:29.564Z,2.22
2023-03-16T20:19:58.994Z,2.10
2023-03-16T20:22:29.166Z,2.15
2023-03-16T20:24:58.578Z,2.15
2023-03-16T20:27:30.737Z,1.42
2023-03-16T20:29:59.681Z,1.58
2023-03-16T20:32:35.035Z,1.60
2023-03-16T20:35:06.255Z,3.03
2023-03-16T20:37:35.791Z,2.67
2023-03-16T20:40:05.176Z,3.53
2023-03-16T20:42:37.004Z,3.22
2023-03-16T20:45:16.422Z,3.13
2023-03-16T20:47:45.995Z,2.28
2023-03-16T20:50:22.218Z,2.25
2023-03-16T20:52:51.588Z,1.55
2023-03-16T20:55:22.645Z,1.50
2023-03-16T20:57:55.343Z,1.60
2023-03-16T21:00:32.937Z,1.40
2023-03-16T21:03:05.263Z,1.30
2023-03-16T21:08:03.005Z,1.42
2023-03-16T21:10:32.603Z,1.45
2023-03-16T21:13:03.057Z,1.50
2023-03-16T21:15:33.304Z,1.48
2023-03-16T21:18:03.937Z,1.88
2023-03-16T21:20:33.928Z,2.40
2023-03-16T21:23:03.775Z,1.55
2023-03-16T21:25:34.363Z,1.67
2023-03-16T21:28:06.108Z,3.00
2023-03-16T21:30:37.247Z,2.30
2023-03-16T21:33:11.973Z,2.50
2023-03-16T21:35:41.062Z,1.90
2023-03-16T21:38:13.856Z,1.90
2023-03-16T21:40:43.278Z,2.83
2023-03-16T21:43:15.044Z,2.20
2023-03-16T21:45:44.329Z,2.20
2023-03-16T21:48:15.617Z,1.90
2023-03-16T21:50:45.399Z,2.20
2023-03-16T21:53:22.291Z,2.80
2023-03-16T21:55:51.678Z,2.08
2023-03-16T21:58:23.384Z,2.05
2023-03-16T22:00:53.244Z,2.03
2023-03-16T22:03:32.933Z,1.70
2023-03-16T22:06:07.321Z,2.92
2023-03-16T22:08:36.650Z,2.10
2023-03-16T22:11:11.626Z,2.00
2023-03-16T22:13:42.745Z,2.00
2023-03-16T22:16:15.774Z,1.95
2023-03-16T22:18:47.586Z,1.85
2023-03-16T22:21:28.301Z,2.85
2023-03-16T22:23:58.381Z,1.58
2023-03-16T22:26:28.640Z,2.25
2023-03-16T22:29:01.016Z,2.42
2023-03-16T22:31:33.684Z,2.83
2023-03-16T22:34:03.861Z,2.10
2023-03-16T22:36:33.744Z,2.60
2023-03-16T22:39:04.343Z,1.83
2023-03-16T22:41:33.750Z,2.28
2023-03-16T22:44:04.704Z,2.08
2023-03-16T22:46:35.554Z,2.45
2023-03-16T22:49:04.622Z,1.90
2023-03-16T22:51:36.458Z,2.13
2023-03-16T22:54:06.953Z,1.90
2023-03-16T22:56:36.759Z,1.73
2023-03-16T22:59:08.100Z,2.22
2023-03-16T23:01:39.939Z,2.20
2023-03-16T23:04:13.820Z,1.80
2023-03-16T23:06:43.492Z,2.42
2023-03-16T23:09:15.406Z,2.58
2023-03-16T23:11:46.171Z,2.38
2023-03-16T23:14:18.450Z,2.75
2023-03-16T23:19:25.284Z,2.40
2023-03-16T23:21:55.788Z,2.67
2023-03-16T23:24:25.997Z,3.28
2023-03-16T23:26:55.831Z,2.63
2023-03-16T23:29:27.193Z,2.80
2023-03-16T23:31:56.729Z,2.05
2023-03-16T23:34:26.804Z,2.95
2023-03-16T23:36:56.149Z,2.30
2023-03-16T23:39:26.202Z,2.70
2023-03-16T23:41:55.543Z,3.00
2023-03-16T23:44:27.982Z,2.20
2023-03-16T23:46:57.695Z,1.90
2023-03-16T23:49:28.037Z,2.22
2023-03-16T23:51:58.527Z,2.53
2023-03-16T23:54:28.574Z,2.50
2023-03-16T23:56:57.708Z,2.28
2023-03-16T23:59:28.993Z,2.65
